Time;durP1;ratioP1;P1;durP2;ratioP2;P2;SDS_P1;SDS_P2;PMS_P1;PMS_P2;Temp;Humidity;BMP_temperature;BMP_pressure;BME280_temperature;BME280_humidity;BME280_pressure;Samples;Min_cycle;Max_cycle;Signal;HPM_P1;HPM_P2
2021/05/19 00:00:11;;;;;;;2.55;1.90;;;;;;;11.39;67.18;100361.88;5022347;28;20041;-81
2021/05/19 00:02:38;;;;;;;2.53;1.80;;;;;;;11.41;67.44;100364.44;5029178;28;20046;-80
2021/05/19 00:05:05;;;;;;;2.05;1.85;;;;;;;11.43;67.09;100357.28;5029587;28;20070;-80
2021/05/19 00:07:31;;;;;;;2.45;1.83;;;;;;;11.47;67.15;100374.75;5037453;28;20118;-79
2021/05/19 00:09:58;;;;;;;2.42;2.00;;;;;;;11.43;67.86;100373.19;5034413;28;20046;-79
2021/05/19 00:12:24;;;;;;;3.33;2.28;;;;;;;11.39;67.81;100367.19;5009671;28;20077;-80
2021/05/19 00:14:51;;;;;;;3.03;2.00;;;;;;;11.38;67.87;100362.81;5006162;28;20105;-80
2021/05/19 00:17:18;;;;;;;2.25;2.05;;;;;;;11.37;67.81;100363.75;5002729;28;20394;-79
2021/05/19 00:19:46;;;;;;;2.17;1.98;;;;;;;11.37;68.09;100370.84;5027383;28;20095;-80
2021/05/19 00:22:13;;;;;;;1.95;1.83;;;;;;;11.38;67.38;100369.91;5016609;28;20141;-80
2021/05/19 00:24:43;;;;;;;2.93;2.10;;;;;;;11.32;67.77;100371.09;5022909;28;20050;-80
2021/05/19 00:27:11;;;;;;;2.40;2.00;;;;;;;11.24;68.07;100370.59;5017554;28;20498;-80
2021/05/19 00:29:41;;;;;;;2.50;2.00;;;;;;;11.15;68.75;100371.94;5023561;28;20050;-82
2021/05/19 00:32:09;;;;;;;3.17;2.30;;;;;;;11.03;68.83;100361.06;5020496;28;20129;-80
2021/05/19 00:34:36;;;;;;;3.08;2.10;;;;;;;11.00;68.39;100369.19;5022053;28;20049;-80
2021/05/19 00:37:02;;;;;;;4.47;2.50;;;;;;;10.94;68.96;100372.13;5004614;28;20133;-79
2021/05/19 00:39:29;;;;;;;3.28;2.25;;;;;;;10.88;68.87;100374.13;5009934;28;20097;-79
2021/05/19 00:41:57;;;;;;;2.60;2.40;;;;;;;10.79;69.43;100379.00;5026386;28;20077;-79
2021/05/19 00:44:28;;;;;;;2.38;2.15;;;;;;;10.69;69.96;100373.31;5005031;28;20137;-80
2021/05/19 00:46:54;;;;;;;2.65;2.10;;;;;;;10.65;70.56;100379.69;5012123;28;20074;-80
2021/05/19 00:49:25;;;;;;;2.92;2.60;;;;;;;10.59;70.31;100369.38;5023378;28;20057;-79
2021/05/19 00:51:51;;;;;;;3.33;2.50;;;;;;;10.59;70.76;100372.00;5030974;28;20061;-81
2021/05/19 00:54:22;;;;;;;2.97;2.63;;;;;;;10.58;70.60;100377.38;5036724;28;20050;-80
2021/05/19 00:56:51;;;;;;;3.10;2.80;;;;;;;10.51;71.04;100368.88;5007739;28;20054;-82
2021/05/19 00:59:18;;;;;;;4.97;2.83;;;;;;;10.49;70.67;100362.78;4994908;28;20057;-81
2021/05/19 01:01:45;;;;;;;3.00;2.80;;;;;;;10.44;70.79;100363.00;5009902;28;20065;-81
2021/05/19 01:04:13;;;;;;;2.88;2.28;;;;;;;10.43;71.29;100371.88;5029512;28;20072;-80
2021/05/19 01:06:50;;;;;;;2.92;2.58;;;;;;;10.39;71.59;100378.22;5027000;28;20465;-81
2021/05/19 01:09:35;;;;;;;3.15;2.70;;;;;;;10.39;71.65;100377.41;5025398;28;20218;-80
2021/05/19 01:12:06;;;;;;;2.72;2.53;;;;;;;10.33;72.00;100375.91;5026740;28;20444;-81
2021/05/19 01:14:33;;;;;;;2.90;2.70;;;;;;;10.30;71.98;100375.16;5025311;28;20050;-81
2021/05/19 01:17:01;;;;;;;3.00;2.70;;;;;;;10.29;72.13;100378.75;5012374;28;20034;-81
2021/05/19 01:19:30;;;;;;;3.15;2.90;;;;;;;10.28;72.82;100374.38;5024149;28;20045;-80
2021/05/19 01:22:05;;;;;;;3.08;2.53;;;;;;;10.28;72.88;100380.53;5018424;28;20074;-81
2021/05/19 01:24:33;;;;;;;2.78;2.58;;;;;;;10.25;72.56;100380.66;5012643;28;20076;-81
2021/05/19 01:27:00;;;;;;;3.30;3.03;;;;;;;10.21;72.76;100384.41;5021702;28;20046;-82
2021/05/19 01:29:27;;;;;;;3.03;2.65;;;;;;;10.12;73.02;100375.03;5027260;28;20041;-80
2021/05/19 01:31:54;;;;;;;3.47;2.90;;;;;;;10.12;73.63;100380.34;5035866;28;20049;-80
2021/05/19 01:34:21;;;;;;;4.28;3.00;;;;;;;10.11;73.35;100372.47;5002625;28;20051;-81
2021/05/19 01:36:53;;;;;;;3.10;2.80;;;;;;;10.11;73.48;100380.41;5005940;28;20073;-81
2021/05/19 01:39:20;;;;;;;4.05;3.20;;;;;;;10.06;73.82;100380.63;5001061;28;20050;-81
2021/05/19 01:41:50;;;;;;;5.20;3.05;;;;;;;10.09;74.24;100383.13;5022647;28;20054;-81
2021/05/19 01:44:21;;;;;;;3.67;3.38;;;;;;;10.07;73.61;100381.50;5007123;28;20091;-81
2021/05/19 01:46:49;;;;;;;3.30;3.00;;;;;;;10.08;73.39;100383.19;5021410;28;20064;-81
2021/05/19 01:49:18;;;;;;;5.97;3.10;;;;;;;10.03;73.68;100385.19;5025282;28;20088;-81
2021/05/19 01:51:45;;;;;;;4.28;3.60;;;;;;;9.90;73.62;100362.88;5004205;28;20046;-81
2021/05/19 01:54:13;;;;;;;3.58;3.22;;;;;;;9.95;73.85;100380.22;5003225;28;20054;-81
2021/05/19 01:56:40;;;;;;;4.35;3.30;;;;;;;9.96;73.86;100375.81;5012322;28;20065;-81
2021/05/19 01:59:12;;;;;;;4.68;3.40;;;;;;;9.93;74.18;100378.56;5004702;28;20746;-81
2021/05/19 02:01:42;;;;;;;3.55;3.25;;;;;;;9.91;74.09;100376.03;5010106;28;20050;-81
2021/05/19 02:04:15;;;;;;;4.20;3.80;;;;;;;9.90;74.21;100378.75;5001187;28;20046;-81
2021/05/19 02:06:57;;;;;;;7.32;4.25;;;;;;;9.89;74.16;100380.53;5000898;28;20121;-81
2021/05/19 02:09:25;;;;;;;4.50;3.70;;;;;;;9.84;74.52;100385.16;5020416;28;20038;-81
2021/05/19 02:11:54;;;;;;;3.95;3.38;;;;;;;9.85;74.53;100394.81;5027564;28;20038;-80
2021/05/19 02:14:24;;;;;;;4.72;3.60;;;;;;;9.82;74.91;100384.34;5004932;28;20046;-80
2021/05/19 02:16:50;;;;;;;5.32;3.60;;;;;;;9.78;74.73;100386.25;5027969;28;20062;-81
2021/05/19 02:19:19;;;;;;;4.15;3.58;;;;;;;9.78;74.78;100390.69;5017858;28;20049;-81
2021/05/19 02:21:49;;;;;;;4.03;3.63;;;;;;;9.79;74.21;100392.41;5017636;28;20046;-81
2021/05/19 02:24:18;;;;;;;4.25;3.67;;;;;;;9.80;74.31;100394.13;5011945;28;20058;-81
2021/05/19 02:26:50;;;;;;;4.15;3.75;;;;;;;9.78;74.59;100393.34;4997347;28;20129;-81
2021/05/19 02:29:17;;;;;;;3.42;3.22;;;;;;;9.74;74.57;100394.41;5017582;28;20058;-81
2021/05/19 02:31:45;;;;;;;3.83;3.53;;;;;;;9.71;74.67;100390.13;5003895;28;20060;-81
2021/05/19 02:34:12;;;;;;;4.72;3.78;;;;;;;9.74;74.82;100399.72;5019442;28;20058;-81
2021/05/19 02:36:42;;;;;;;3.80;3.50;;;;;;;9.74;74.71;100399.72;4990523;28;20792;-81
2021/05/19 02:39:12;;;;;;;4.07;3.67;;;;;;;9.74;74.77;100399.72;5018012;28;20072;-81
2021/05/19 02:41:41;;;;;;;3.80;3.50;;;;;;;9.72;74.81;100402.41;5006744;28;20057;-81
2021/05/19 02:44:09;;;;;;;3.80;3.50;;;;;;;9.72;74.40;100409.50;5001090;28;20050;-81
2021/05/19 02:46:37;;;;;;;5.82;3.30;;;;;;;9.64;74.95;100406.28;5002709;28;20453;-80
2021/05/19 02:49:05;;;;;;;4.10;3.40;;;;;;;9.55;75.43;100398.78;5015141;28;20109;-82
2021/05/19 02:51:34;;;;;;;4.38;3.97;;;;;;;9.55;76.39;100404.91;5001773;28;20913;-80
2021/05/19 02:54:01;;;;;;;7.72;5.13;;;;;;;9.52;77.85;100405.03;5008568;28;20056;-80
2021/05/19 02:56:28;;;;;;;6.18;5.40;;;;;;;9.45;78.74;100391.22;4996274;28;20415;-83
2021/05/19 02:58:56;;;;;;;5.85;5.28;;;;;;;9.47;79.18;100410.50;4989594;28;20057;-79
2021/05/19 03:01:27;;;;;;;9.10;5.90;;;;;;;9.38;80.36;100403.00;5033439;28;20078;-82
2021/05/19 03:03:53;;;;;;;7.57;6.85;;;;;;;9.22;80.79;100387.84;5016213;28;20065;-81
2021/05/19 03:06:22;;;;;;;7.53;6.75;;;;;;;9.32;81.61;100412.94;5037174;28;20106;-81
2021/05/19 03:08:50;;;;;;;6.70;6.10;;;;;;;9.33;82.02;100414.66;5010428;28;20064;-81
2021/05/19 03:11:17;;;;;;;9.65;6.85;;;;;;;9.32;82.42;100413.81;5018417;28;20054;-82
2021/05/19 03:13:44;;;;;;;7.97;7.07;;;;;;;9.26;82.60;100408.78;5000309;28;20497;-82
2021/05/19 03:16:11;;;;;;;7.43;6.50;;;;;;;9.21;83.16;100413.41;5013036;28;20056;-82
2021/05/19 03:18:39;;;;;;;8.48;6.90;;;;;;;9.23;83.50;100416.84;5021999;28;20111;-82
2021/05/19 03:21:06;;;;;;;7.53;6.57;;;;;;;9.24;83.98;100415.06;5007546;28;20141;-82
2021/05/19 03:23:36;;;;;;;9.15;7.43;;;;;;;9.26;84.28;100413.22;5001955;28;20054;-82
2021/05/19 03:26:03;;;;;;;8.50;7.10;;;;;;;9.20;84.40;100400.25;5014109;28;20054;-81
2021/05/19 03:28:30;;;;;;;7.40;6.78;;;;;;;9.32;84.30;100419.09;5012312;28;20076;-81
2021/05/19 03:30:56;;;;;;;9.50;6.28;;;;;;;9.31;84.11;100412.06;5030181;28;20069;-81
2021/05/19 03:33:28;;;;;;;8.27;6.50;;;;;;;9.37;83.92;100418.91;5008773;28;20114;-82
2021/05/19 03:35:55;;;;;;;6.93;6.28;;;;;;;9.43;83.46;100427.44;5004647;28;20046;-82
2021/05/19 03:38:25;;;;;;;5.95;5.35;;;;;;;9.47;82.71;100425.50;5004723;28;20073;-82
2021/05/19 03:40:52;;;;;;;6.28;5.38;;;;;;;9.46;81.59;100416.72;4995575;28;20122;-81
2021/05/19 03:43:19;;;;;;;7.82;5.40;;;;;;;9.64;80.60;100428.31;5024567;28;20118;-82
2021/05/19 03:45:47;;;;;;;6.70;5.47;;;;;;;9.64;80.67;100430.97;5023702;28;20129;-81
2021/05/19 03:48:16;;;;;;;7.22;5.28;;;;;;;9.71;80.21;100436.84;5009081;28;20042;-82
2021/05/19 03:50:46;;;;;;;5.82;4.68;;;;;;;9.70;80.16;100438.63;5031149;28;20061;-82
2021/05/19 03:53:15;;;;;;;5.65;5.05;;;;;;;9.72;80.06;100443.88;5025831;28;20080;-82
2021/05/19 03:55:45;;;;;;;6.10;5.50;;;;;;;9.62;80.10;100424.00;5014053;28;20040;-82
2021/05/19 03:58:13;;;;;;;6.13;5.40;;;;;;;9.75;79.79;100438.44;5035684;28;20050;-80
2021/05/19 04:00:40;;;;;;;6.85;5.28;;;;;;;9.71;79.79;100432.44;5035844;28;20117;-80
2021/05/19 04:03:07;;;;;;;6.43;5.28;;;;;;;9.70;79.97;100441.28;5016482;28;20106;-80
2021/05/19 04:05:39;;;;;;;7.68;5.03;;;;;;;9.72;79.61;100446.50;5027480;28;20045;-80
2021/05/19 04:08:07;;;;;;;7.13;5.15;;;;;;;9.68;79.55;100442.28;5029790;28;20054;-80
2021/05/19 04:10:35;;;;;;;6.05;5.32;;;;;;;9.69;79.59;100457.22;5013950;28;20042;-81
2021/05/19 04:13:05;;;;;;;6.00;5.40;;;;;;;9.75;79.80;100454.31;5031305;28;20050;-81
2021/05/19 04:15:35;;;;;;;5.72;4.90;;;;;;;9.77;79.39;100458.59;5011162;28;20054;-80
2021/05/19 04:18:03;;;;;;;6.28;5.40;;;;;;;9.72;79.40;100459.72;5010689;28;20105;-81
2021/05/19 04:20:35;;;;;;;7.13;5.20;;;;;;;9.70;79.10;100469.50;5013314;28;20085;-81
2021/05/19 04:23:02;;;;;;;5.68;5.18;;;;;;;9.68;79.92;100458.13;5029125;28;20054;-81
2021/05/19 04:25:29;;;;;;;8.15;5.30;;;;;;;9.72;79.94;100467.66;5016622;28;20069;-80
2021/05/19 04:27:56;;;;;;;6.03;5.43;;;;;;;9.73;79.86;100469.38;5017899;28;20046;-80
2021/05/19 04:30:23;;;;;;;6.22;5.63;;;;;;;9.75;79.92;100465.75;5035584;28;20109;-81
2021/05/19 04:32:53;;;;;;;6.00;5.50;;;;;;;9.75;79.69;100457.81;5020972;28;20126;-79
2021/05/19 04:35:20;;;;;;;6.63;5.82;;;;;;;9.79;79.46;100458.53;5013064;28;20050;-81
2021/05/19 04:37:47;;;;;;;6.43;5.82;;;;;;;9.88;80.02;100459.94;5019280;28;20773;-81
2021/05/19 04:40:13;;;;;;;6.55;5.95;;;;;;;9.96;79.49;100469.25;5001766;28;20081;-81
2021/05/19 04:42:41;;;;;;;8.88;6.85;;;;;;;10.00;79.01;100460.25;5001720;28;20058;-81
2021/05/19 04:45:08;;;;;;;7.35;6.60;;;;;;;10.06;78.94;100462.66;5000517;28;20121;-81
2021/05/19 04:47:35;;;;;;;7.45;6.68;;;;;;;10.15;78.94;100458.72;5002666;28;20046;-81
2021/05/19 04:50:05;;;;;;;7.82;6.43;;;;;;;10.21;79.38;100463.78;4999434;28;20089;-81
2021/05/19 04:52:34;;;;;;;8.73;6.90;;;;;;;10.31;78.96;100461.59;5019035;28;20041;-81
2021/05/19 04:55:04;;;;;;;7.18;6.43;;;;;;;10.35;78.44;100465.81;5017681;28;20053;-81
2021/05/19 04:57:30;;;;;;;7.95;6.90;;;;;;;10.42;78.25;100470.75;5018687;28;20077;-81
2021/05/19 04:59:57;;;;;;;8.05;6.72;;;;;;;10.44;77.64;100474.19;5000838;28;20554;-82
2021/05/19 05:02:26;;;;;;;7.15;6.13;;;;;;;10.46;78.10;100476.78;5006225;28;20046;-81
2021/05/19 05:04:53;;;;;;;7.47;6.43;;;;;;;10.55;78.28;100485.16;5007227;28;20046;-81
2021/05/19 05:07:20;;;;;;;7.50;6.63;;;;;;;10.64;78.03;100481.25;5023096;28;20650;-80
2021/05/19 05:09:49;;;;;;;7.13;5.93;;;;;;;10.69;77.16;100495.13;5001252;28;20117;-80
2021/05/19 05:12:17;;;;;;;9.50;6.40;;;;;;;10.70;77.04;100483.63;5016878;28;20061;-79
2021/05/19 05:14:44;;;;;;;6.18;5.57;;;;;;;10.73;77.18;100494.03;5023124;28;20092;-79
2021/05/19 05:17:14;;;;;;;6.55;5.95;;;;;;;10.69;77.07;100488.97;5008198;28;20038;-79
2021/05/19 05:19:45;;;;;;;6.57;5.90;;;;;;;10.75;77.29;100502.78;5022646;28;20050;-78
2021/05/19 05:22:11;;;;;;;7.72;6.10;;;;;;;10.73;77.71;100496.69;5004887;28;20069;-79
2021/05/19 05:24:39;;;;;;;6.90;6.03;;;;;;;10.77;77.82;100495.63;5016982;28;20053;-79
2021/05/19 05:27:06;;;;;;;6.50;5.78;;;;;;;10.79;77.29;100512.31;4999299;28;20038;-82
2021/05/19 05:29:33;;;;;;;7.38;5.50;;;;;;;10.73;77.12;100509.06;5016063;28;20042;-81
2021/05/19 05:32:00;;;;;;;7.50;6.00;;;;;;;10.67;77.36;100504.06;5018271;28;20073;-81
2021/05/19 05:34:27;;;;;;;6.43;5.82;;;;;;;10.70;77.61;100510.09;5003087;28;20046;-81
2021/05/19 05:36:54;;;;;;;7.40;6.30;;;;;;;10.68;77.49;100511.97;5003613;28;20038;-80
2021/05/19 05:39:24;;;;;;;9.45;5.07;;;;;;;10.62;77.74;100506.94;5020002;28;20058;-81
2021/05/19 05:41:55;;;;;;;6.18;5.57;;;;;;;10.69;77.25;100512.81;5023346;28;20056;-81
2021/05/19 05:44:23;;;;;;;5.90;5.30;;;;;;;10.79;77.89;100511.47;5027131;28;20030;-81
2021/05/19 05:46:51;;;;;;;6.72;5.03;;;;;;;10.90;77.06;100511.81;5029180;28;20033;-81
2021/05/19 05:49:18;;;;;;;8.63;4.72;;;;;;;10.93;76.43;100509.03;5027311;28;20065;-80
2021/05/19 05:51:48;;;;;;;5.93;4.65;;;;;;;10.96;76.65;100515.97;5014883;28;20056;-81
2021/05/19 05:54:15;;;;;;;7.78;4.18;;;;;;;10.97;76.77;100513.25;5028415;28;20042;-81
2021/05/19 05:56:43;;;;;;;7.13;4.82;;;;;;;11.09;76.63;100522.41;5024069;28;20053;-81
2021/05/19 05:59:10;;;;;;;4.82;3.90;;;;;;;11.25;77.94;100518.13;5016443;28;20046;-80
2021/05/19 06:01:39;;;;;;;6.63;3.95;;;;;;;11.44;78.23;100508.34;5038187;28;20084;-80
2021/05/19 06:04:06;;;;;;;5.70;3.55;;;;;;;11.60;75.77;100513.75;5014792;28;20046;-81
2021/05/19 06:06:36;;;;;;;5.40;3.85;;;;;;;11.75;75.43;100517.44;5033921;28;20039;-80
2021/05/19 06:09:06;;;;;;;4.65;3.80;;;;;;;11.85;72.79;100532.00;5016440;28;20068;-80
2021/05/19 06:11:35;;;;;;;;;;;;;;;11.84;71.85;100528.47;5021389;28;20034;-80
2021/05/19 06:14:02;;;;;;;3.78;3.47;;;;;;;11.80;71.54;100526.06;5008707;28;19921;-80
2021/05/19 06:16:29;;;;;;;3.97;3.47;;;;;;;11.68;72.46;100524.84;5017756;28;20045;-82
2021/05/19 06:18:56;;;;;;;5.32;4.20;;;;;;;11.68;72.05;100532.78;5034519;28;20052;-81
2021/05/19 06:21:31;;;;;;;5.35;3.60;;;;;;;11.63;72.33;100534.84;5027047;28;20152;-79
2021/05/19 06:23:59;;;;;;;5.65;3.80;;;;;;;11.70;72.56;100535.38;5020165;28;20520;-79
2021/05/19 06:26:26;;;;;;;4.72;3.80;;;;;;;11.74;72.31;100540.47;5007686;28;20046;-80
2021/05/19 06:28:54;;;;;;;8.38;3.55;;;;;;;11.80;71.68;100545.50;5027007;28;20046;-80
2021/05/19 06:31:21;;;;;;;7.35;3.90;;;;;;;11.74;72.08;100543.13;5011270;28;20046;-79
2021/05/19 06:33:51;;;;;;;5.88;3.55;;;;;;;11.90;72.05;100545.91;4995473;28;20075;-80
2021/05/19 06:36:21;;;;;;;10.80;5.13;;;;;;;12.02;72.00;100539.97;5028600;28;20056;-79
2021/05/19 06:38:48;;;;;;;8.13;3.67;;;;;;;12.22;70.95;100537.16;5017121;28;20041;-79
2021/05/19 06:41:14;;;;;;;4.82;3.50;;;;;;;12.39;70.32;100538.94;5006489;28;20060;-81
2021/05/19 06:43:43;;;;;;;4.32;3.70;;;;;;;12.51;69.59;100538.28;5002638;28;20054;-84
2021/05/19 06:46:12;;;;;;;4.13;3.40;;;;;;;12.87;68.55;100540.81;5015886;28;20050;-80
2021/05/19 06:48:39;;;;;;;4.50;3.60;;;;;;;13.28;67.05;100538.53;4999978;28;20054;-80
2021/05/19 06:51:07;;;;;;;4.30;3.25;;;;;;;13.52;66.48;100538.13;5017883;28;20048;-81
2021/05/19 06:53:38;;;;;;;4.15;3.10;;;;;;;13.77;65.57;100545.53;5009697;28;20133;-80
2021/05/19 06:56:08;;;;;;;4.15;3.53;;;;;;;13.78;64.90;100541.94;4985572;28;20183;-81
2021/05/19 06:58:36;;;;;;;5.38;3.35;;;;;;;13.76;64.69;100541.16;4996931;28;20053;-81
2021/05/19 07:01:02;;;;;;;6.45;4.28;;;;;;;13.77;64.50;100542.88;5017318;28;20601;-81
2021/05/19 07:03:32;;;;;;;5.22;3.80;;;;;;;13.92;64.58;100545.50;4996033;28;20050;-81
2021/05/19 07:05:59;;;;;;;5.55;4.03;;;;;;;13.95;63.59;100544.47;4997225;28;20054;-81
2021/05/19 07:08:26;;;;;;;6.25;3.55;;;;;;;13.97;63.61;100547.91;4998597;28;20046;-81
2021/05/19 07:10:54;;;;;;;6.55;3.60;;;;;;;14.06;63.51;100542.03;5021889;28;20073;-81
2021/05/19 07:13:27;;;;;;;6.40;3.97;;;;;;;14.28;63.17;100545.16;5029693;28;20053;-79
2021/05/19 07:15:58;;;;;;;5.38;3.60;;;;;;;14.49;61.87;100543.00;5017628;28;20073;-80
2021/05/19 07:18:32;;;;;;;5.15;3.75;;;;;;;14.63;61.27;100555.53;5008783;28;20057;-79
2021/05/19 07:20:59;;;;;;;4.03;3.63;;;;;;;14.63;61.45;100543.06;5019349;28;20065;-79
2021/05/19 07:23:26;;;;;;;3.70;3.30;;;;;;;14.58;60.65;100549.63;5023586;28;20050;-79
2021/05/19 07:25:54;;;;;;;4.10;3.70;;;;;;;14.65;60.26;100549.13;5023976;28;20046;-80
2021/05/19 07:28:21;;;;;;;6.25;3.53;;;;;;;14.59;60.23;100540.66;5020253;28;20065;-79
2021/05/19 07:30:57;;;;;;;7.38;3.42;;;;;;;14.68;60.39;100558.75;5005974;28;20042;-80
2021/05/19 07:33:24;;;;;;;3.42;3.15;;;;;;;14.94;59.98;100559.81;5017643;28;20132;-80
2021/05/19 07:35:51;;;;;;;6.25;3.08;;;;;;;15.39;58.52;100554.25;5006540;28;20050;-79
2021/05/19 07:38:18;;;;;;;3.15;2.83;;;;;;;15.79;57.25;100546.31;5008160;28;20128;-80
2021/05/19 07:40:45;;;;;;;5.53;3.28;;;;;;;16.31;56.25;100558.84;5013259;28;20042;-81
2021/05/19 07:43:15;;;;;;;3.70;3.30;;;;;;;16.85;52.97;100556.88;5007460;28;20038;-79
2021/05/19 07:45:42;;;;;;;5.50;3.20;;;;;;;17.95;51.32;100556.91;5019205;28;20062;-79
2021/05/19 07:48:09;;;;;;;3.83;2.75;;;;;;;19.14;48.37;100552.09;5006877;28;20033;-80
2021/05/19 07:50:35;;;;;;;3.13;2.70;;;;;;;20.65;45.30;100534.94;5001165;28;20049;-80
2021/05/19 07:53:02;;;;;;;4.57;3.10;;;;;;;21.83;42.06;100538.78;5017786;28;20041;-80
2021/05/19 07:55:42;;;;;;;6.40;2.80;;;;;;;22.88;39.62;100547.78;4991614;28;20038;-80
2021/05/19 07:58:13;;;;;;;5.65;2.97;;;;;;;23.42;39.55;100552.41;5001370;28;20089;-81
2021/05/19 08:00:51;;;;;;;4.57;2.80;;;;;;;24.03;37.38;100559.00;4997206;28;20026;-80
2021/05/19 08:03:16;;;;;;;3.03;2.58;;;;;;;24.25;34.68;100539.59;5004416;28;20041;-80
2021/05/19 08:05:44;;;;;;;4.72;2.75;;;;;;;24.05;35.64;100549.72;5025585;28;20045;-80
2021/05/19 08:08:14;;;;;;;3.55;2.42;;;;;;;24.31;34.30;100544.41;5019585;28;20041;-75
2021/05/19 08:10:41;;;;;;;3.45;2.65;;;;;;;24.09;34.10;100545.69;4999335;28;20124;-75
2021/05/19 08:13:09;;;;;;;3.15;2.65;;;;;;;23.34;35.33;100549.59;5012966;28;20061;-80
2021/05/19 08:15:35;;;;;;;4.28;2.40;;;;;;;22.89;36.40;100545.94;5031413;28;20022;-80
2021/05/19 08:18:08;;;;;;;3.70;2.60;;;;;;;22.39;37.39;100546.16;5007861;28;20548;-81
2021/05/19 08:20:41;;;;;;;2.55;2.30;;;;;;;21.73;38.65;100543.28;5009307;28;20053;-81
2021/05/19 08:23:12;;;;;;;3.38;2.67;;;;;;;21.05;40.47;100549.47;5013445;28;20058;-81
2021/05/19 08:25:39;;;;;;;2.90;2.70;;;;;;;21.06;41.02;100546.66;5010500;28;20053;-81
2021/05/19 08:28:06;;;;;;;5.20;3.75;;;;;;;21.08;40.32;100543.81;5005700;28;20057;-81
2021/05/19 08:30:33;;;;;;;3.10;2.80;;;;;;;20.71;41.16;100546.19;5007302;28;20049;-81
2021/05/19 08:33:01;;;;;;;3.67;2.83;;;;;;;20.25;41.12;100525.91;5021531;28;20113;-81
2021/05/19 08:35:30;;;;;;;3.65;2.72;;;;;;;20.00;42.40;100542.38;5003659;28;20127;-81
2021/05/19 08:37:58;;;;;;;4.55;3.17;;;;;;;19.49;43.47;100541.22;5002475;28;20046;-80
2021/05/19 08:40:28;;;;;;;4.13;2.88;;;;;;;19.43;43.43;100538.13;5020684;28;20107;-80
2021/05/19 08:42:56;;;;;;;3.97;3.08;;;;;;;19.27;43.97;100541.22;5020814;28;20045;-81
2021/05/19 08:45:24;;;;;;;4.30;3.28;;;;;;;18.46;44.82;100533.31;5023915;28;20145;-81
2021/05/19 08:48:05;;;;;;;3.55;2.60;;;;;;;18.10;47.12;100532.50;5008748;28;20072;-81
2021/05/19 08:50:35;;;;;;;3.45;2.92;;;;;;;17.85;48.13;100540.69;5008550;28;20060;-81
2021/05/19 08:53:09;;;;;;;2.65;2.45;;;;;;;17.78;48.62;100537.63;5006703;28;20052;-82
2021/05/19 08:55:36;;;;;;;3.30;3.00;;;;;;;17.69;48.60;100535.63;5011165;28;20065;-79
2021/05/19 08:58:03;;;;;;;3.17;2.88;;;;;;;17.56;48.07;100531.25;5012076;28;20057;-80
2021/05/19 09:00:35;;;;;;;6.22;2.88;;;;;;;17.62;48.23;100530.81;5023457;28;20049;-80
2021/05/19 09:03:10;;;;;;;3.08;2.53;;;;;;;17.77;48.66;100530.56;5002829;28;20037;-82
2021/05/19 09:05:41;;;;;;;3.60;2.75;;;;;;;17.91;48.30;100521.47;5005057;28;20157;-82
2021/05/19 09:08:09;;;;;;;;;;;;;;;18.18;46.40;100518.53;5022178;28;20069;-81
2021/05/19 09:10:41;;;;;;;3.90;2.63;;;;;;;18.38;46.35;100515.16;5021262;28;19922;-82
2021/05/19 09:13:35;;;;;;;3.15;2.80;;;;;;;18.61;46.45;100521.44;5030704;28;20054;-82
2021/05/19 09:16:04;;;;;;;4.38;2.83;;;;;;;18.80;45.46;100513.66;5016091;28;20050;-82
2021/05/19 09:18:43;;;;;;;5.43;2.78;;;;;;;18.74;45.18;100508.75;5030829;28;20069;-82
2021/05/19 09:21:39;;;;;;;3.95;2.63;;;;;;;18.83;46.80;100504.50;5029835;28;20041;-82
2021/05/19 09:24:21;;;;;;;4.60;2.90;;;;;;;18.88;44.73;100507.69;5033651;28;20092;-82
2021/05/19 09:26:59;;;;;;;4.45;3.40;;;;;;;18.84;44.25;100508.91;5020715;28;20125;-82
2021/05/19 09:29:33;;;;;;;4.20;2.78;;;;;;;18.65;44.54;100501.47;5003698;28;20084;-82
2021/05/19 09:32:03;;;;;;;3.05;2.60;;;;;;;18.44;44.20;100495.91;5021700;28;20396;-81
2021/05/19 09:34:54;;;;;;;3.63;2.83;;;;;;;18.34;45.51;100497.59;5008888;28;20117;-82
2021/05/19 09:37:30;;;;;;;3.83;2.60;;;;;;;18.40;45.80;100489.09;5028136;28;20084;-82
2021/05/19 09:39:57;;;;;;;4.70;2.38;;;;;;;18.48;44.92;100483.97;5022043;28;20061;-81
2021/05/19 09:42:27;;;;;;;4.07;2.58;;;;;;;18.64;45.37;100488.16;5009135;28;20113;-80
2021/05/19 09:44:57;;;;;;;3.85;2.47;;;;;;;18.76;44.33;100489.88;5027600;28;20066;-80
2021/05/19 09:47:41;;;;;;;3.33;2.30;;;;;;;18.74;42.52;100489.13;5027081;28;20112;-82
2021/05/19 09:50:19;;;;;;;2.95;2.10;;;;;;;18.77;42.39;100486.22;5014335;28;20909;-79
2021/05/19 09:53:16;;;;;;;4.15;2.08;;;;;;;18.36;42.22;100476.03;5030332;28;20042;-80
2021/05/19 09:55:50;;;;;;;2.53;1.73;;;;;;;17.91;43.45;100485.81;5027178;28;20037;-81
2021/05/19 09:58:33;;;;;;;3.58;1.60;;;;;;;17.45;46.22;100490.06;5030239;28;20073;-79
2021/05/19 10:01:01;;;;;;;3.72;1.70;;;;;;;17.13;47.79;100487.06;5019018;28;20048;-81
2021/05/19 10:03:29;;;;;;;2.60;2.15;;;;;;;16.71;50.88;100484.78;5019616;28;20077;-82
2021/05/19 10:08:34;;;;;;;5.63;2.30;;;;;;;16.29;52.67;100483.28;5027628;28;20057;-79
2021/05/19 10:11:03;;;;;;;3.08;2.20;;;;;;;16.20;51.84;100479.44;5014361;28;20084;-80
2021/05/19 10:13:32;;;;;;;2.58;1.80;;;;;;;16.19;51.92;100482.22;5030099;28;20104;-79
2021/05/19 10:16:08;;;;;;;3.60;2.00;;;;;;;16.12;50.28;100484.44;5013539;28;20042;-79
2021/05/19 10:18:53;;;;;;;1.92;1.60;;;;;;;16.09;52.31;100476.63;4976405;28;20043;-80
2021/05/19 10:21:26;;;;;;;4.85;1.58;;;;;;;16.25;50.05;100482.63;5025616;28;20133;-80
2021/05/19 10:24:03;;;;;;;4.00;1.65;;;;;;;16.56;49.28;100488.50;5016296;28;20088;-80
2021/05/19 10:26:32;;;;;;;2.70;1.58;;;;;;;17.07;46.73;100478.63;5029695;28;20045;-80
2021/05/19 10:29:00;;;;;;;4.47;1.95;;;;;;;17.44;46.64;100477.66;5013169;28;20042;-80
2021/05/19 10:31:29;;;;;;;3.40;1.23;;;;;;;17.76;43.50;100461.88;5023344;28;20046;-80
2021/05/19 10:34:01;;;;;;;3.92;1.60;;;;;;;17.86;43.84;100470.91;5029525;28;20070;-79
2021/05/19 10:36:32;;;;;;;2.53;1.40;;;;;;;17.89;43.89;100472.50;5032803;28;20049;-79
2021/05/19 10:39:12;;;;;;;1.77;1.10;;;;;;;18.12;42.96;100473.41;5032180;28;20038;-80
2021/05/19 10:41:46;;;;;;;1.42;0.95;;;;;;;18.39;41.91;100470.44;5029942;28;20049;-81
2021/05/19 10:44:17;;;;;;;2.22;1.20;;;;;;;18.24;41.52;100461.78;5024880;28;20492;-80
2021/05/19 10:46:47;;;;;;;2.92;1.17;;;;;;;18.35;42.40;100467.16;5011725;28;20045;-79
2021/05/19 10:49:17;;;;;;;2.80;1.25;;;;;;;18.25;41.24;100466.16;5013262;28;20045;-82
2021/05/19 10:51:54;;;;;;;3.20;1.05;;;;;;;18.29;41.73;100464.06;5027784;28;20060;-81
2021/05/19 10:57:32;;;;;;;1.58;0.63;;;;;;;18.69;39.23;100454.66;5025813;28;20070;-80
2021/05/19 11:00:21;;;;;;;2.70;0.73;;;;;;;18.89;37.28;100453.88;5024701;28;20041;-80
2021/05/19 11:03:01;;;;;;;2.03;0.60;;;;;;;18.99;35.67;100440.59;5023558;28;20042;-82
2021/05/19 11:05:36;;;;;;;2.22;0.93;;;;;;;19.04;35.61;100446.44;5011952;28;20069;-82
2021/05/19 11:08:05;;;;;;;1.80;0.90;;;;;;;19.08;35.05;100436.28;5009806;28;20048;-82
2021/05/19 11:10:40;;;;;;;2.85;0.68;;;;;;;19.24;34.23;100442.09;5012859;28;20057;-82
2021/05/19 11:13:08;;;;;;;1.27;0.55;;;;;;;19.32;34.29;100431.59;5027651;28;20064;-80
2021/05/19 11:15:43;;;;;;;1.83;0.57;;;;;;;19.24;33.72;100434.91;5032124;28;20038;-82
2021/05/19 11:21:14;;;;;;;2.92;0.85;;;;;;;19.15;34.27;100427.63;5027485;28;20044;-81
2021/05/19 11:23:41;;;;;;;1.63;0.70;;;;;;;19.07;35.21;100426.53;5013477;28;20049;-81
2021/05/19 11:26:14;;;;;;;1.88;0.55;;;;;;;19.05;35.64;100410.56;5010070;28;20061;-79
2021/05/19 11:28:44;;;;;;;2.63;0.80;;;;;;;19.05;34.89;100415.91;5021356;28;20100;-79
2021/05/19 11:31:18;;;;;;;2.05;0.57;;;;;;;19.17;33.62;100419.44;5009034;28;20053;-79
2021/05/19 11:34:03;;;;;;;1.65;0.60;;;;;;;19.61;33.85;100405.88;5017360;28;20102;-79
2021/05/19 11:36:41;;;;;;;2.63;0.60;;;;;;;19.87;33.08;100408.19;5025078;28;20052;-79
2021/05/19 11:39:26;;;;;;;2.22;0.70;;;;;;;20.14;32.26;100408.53;5028819;28;20089;-79
2021/05/19 11:42:29;;;;;;;4.72;0.65;;;;;;;20.35;32.06;100403.09;5032596;28;20168;-81
2021/05/19 11:45:08;;;;;;;1.98;0.40;;;;;;;20.23;31.50;100402.34;5004142;28;20509;-79
2021/05/19 11:47:37;;;;;;;1.42;0.45;;;;;;;20.07;31.59;100403.78;5013421;28;20108;-79